createdAt,value
2018-09-15T07:54:26.272Z,21.90
2018-09-15T07:59:29.910Z,25.50
2018-09-15T08:04:33.278Z,27.70
2018-09-15T08:09:36.720Z,29.40
2018-09-15T08:14:40.125Z,30.20
2018-09-15T08:19:44.579Z,30.60
2018-09-15T08:24:47.878Z,30.70
2018-09-15T08:29:51.368Z,30.30
2018-09-15T08:34:55.057Z,30.90
2018-09-15T08:39:58.963Z,31.00
2018-09-15T08:45:02.897Z,30.30
2018-09-15T08:50:07.227Z,30.10
2018-09-15T09:00:51.941Z,29.90
2018-09-15T09:05:55.615Z,30.60
2018-09-15T09:11:02.723Z,30.60
2018-09-15T09:16:07.749Z,30.60
2018-09-15T09:21:12.076Z,29.90
2018-09-15T09:26:15.731Z,30.30
2018-09-15T09:31:19.516Z,29.70
2018-09-15T09:36:35.452Z,29.50
2018-09-15T09:41:39.479Z,28.30
2018-09-15T09:46:43.334Z,29.70
2018-09-15T09:51:49.124Z,30.10
2018-09-15T09:56:53.331Z,29.00
2018-09-15T10:02:07.261Z,28.30
2018-09-15T10:07:11.254Z,27.20
2018-09-15T10:12:15.405Z,26.60
2018-09-15T10:17:19.108Z,25.30
2018-09-15T10:22:23.654Z,25.00
2018-09-15T10:27:27.214Z,25.10
2018-09-15T10:32:30.810Z,24.60
2018-09-15T10:37:34.430Z,24.40
2018-09-15T10:42:38.070Z,24.30
2018-09-15T10:47:41.704Z,24.30
2018-09-15T10:52:46.134Z,24.40
2018-09-15T10:57:50.174Z,24.20
2018-09-15T11:02:54.199Z,23.90
2018-09-15T11:07:57.886Z,24.20
2018-09-15T11:13:01.789Z,24.20
2018-09-15T11:18:06.355Z,24.00
2018-09-15T11:23:10.051Z,23.90
2018-09-15T11:28:14.354Z,24.30
2018-09-15T11:33:17.888Z,24.20
2018-09-15T11:38:22.009Z,24.50
2018-09-15T11:43:26.233Z,24.50
2018-09-15T11:48:30.122Z,24.40
2018-09-15T11:53:34.054Z,23.90
2018-09-15T11:58:37.901Z,24.20
2018-09-15T12:03:41.875Z,24.20
2018-09-15T12:08:45.925Z,24.20
2018-09-15T12:13:49.806Z,24.40
2018-09-15T12:18:53.767Z,24.70
2018-09-15T12:23:57.554Z,24.60
2018-09-15T12:29:01.609Z,24.90
2018-09-15T12:34:12.123Z,24.20
2018-09-15T12:39:15.680Z,23.80
2018-09-15T12:44:19.497Z,24.50
2018-09-15T12:49:23.198Z,24.60
2018-09-15T12:54:27.085Z,24.80
2018-09-15T12:59:31.139Z,24.80
2018-09-15T13:04:35.110Z,24.60
2018-09-15T13:09:42.813Z,23.90
2018-09-15T13:14:46.422Z,24.30
2018-09-15T13:19:50.194Z,24.10
2018-09-15T13:24:54.149Z,23.70
2018-09-15T13:29:58.506Z,23.80
2018-09-15T13:35:02.944Z,23.80
2018-09-15T13:40:06.541Z,23.70
2018-09-15T13:45:10.628Z,23.70
2018-09-15T13:50:14.225Z,23.70
2018-09-15T13:55:17.954Z,23.60
2018-09-15T14:00:21.986Z,23.60
2018-09-15T14:05:25.800Z,23.60
2018-09-15T14:10:29.875Z,23.80
2018-09-15T14:15:34.414Z,23.70
2018-09-15T14:20:40.342Z,23.50
2018-09-15T14:25:44.203Z,23.80
2018-09-15T14:30:48.151Z,23.60
2018-09-15T14:35:52.521Z,23.10
2018-09-15T14:40:57.070Z,23.00
2018-09-15T14:46:01.549Z,22.90
2018-09-15T14:51:06.027Z,22.70
2018-09-15T14:56:10.440Z,22.70
2018-09-15T15:01:14.255Z,22.60
2018-09-15T15:06:17.992Z,22.40
2018-09-15T15:11:24.739Z,22.10
2018-09-15T15:16:28.695Z,22.10
2018-09-15T15:21:38.527Z,21.80
2018-09-15T15:26:42.271Z,21.80
2018-09-15T15:31:47.753Z,21.80
2018-09-15T15:36:52.627Z,21.70
2018-09-15T15:41:58.861Z,21.80
2018-09-15T15:47:03.078Z,21.60
2018-09-15T15:52:07.075Z,21.40
2018-09-15T15:57:11.763Z,21.30
2018-09-15T16:02:15.821Z,21.20
2018-09-15T16:07:19.833Z,21.00
2018-09-15T16:12:23.553Z,20.80
2018-09-15T16:17:29.567Z,20.70
2018-09-15T16:22:33.442Z,20.60
2018-09-15T16:27:37.284Z,20.40
2018-09-15T16:32:41.033Z,20.20
2018-09-15T16:37:44.749Z,20.00
2018-09-15T16:42:48.294Z,19.80
2018-09-15T16:47:52.640Z,19.50
2018-09-15T16:52:56.370Z,19.40
2018-09-15T16:58:01.355Z,19.20
2018-09-15T17:03:04.998Z,19.00
2018-09-15T17:08:09.415Z,18.80
2018-09-15T17:13:13.566Z,18.60
2018-09-15T17:18:18.145Z,18.40
2018-09-15T17:23:23.069Z,18.20
2018-09-15T17:28:29.010Z,18.10
2018-09-15T17:33:32.799Z,17.80
2018-09-15T17:38:36.538Z,17.70
2018-09-15T17:43:49.401Z,17.40
2018-09-15T17:48:54.235Z,17.10
2018-09-15T17:53:59.541Z,16.90
2018-09-15T17:59:03.755Z,16.70
2018-09-15T18:04:07.530Z,16.40
2018-09-15T18:09:11.264Z,16.20
2018-09-15T18:14:14.870Z,16.10
2018-09-15T18:19:18.633Z,15.90
2018-09-15T18:24:22.477Z,15.70
2018-09-15T18:29:26.079Z,15.50
2018-09-15T18:34:29.887Z,15.30
2018-09-15T18:39:33.649Z,15.20
2018-09-15T18:44:37.252Z,15.20
2018-09-15T18:49:42.629Z,15.10
2018-09-15T18:54:48.031Z,14.90
2018-09-15T18:59:51.911Z,14.60
2018-09-15T19:04:56.368Z,14.40
2018-09-15T19:10:00.857Z,14.20
2018-09-15T19:15:05.303Z,14.00
2018-09-15T19:20:09.027Z,13.80
2018-09-15T19:25:12.670Z,13.50
2018-09-15T19:30:18.136Z,13.30
2018-09-15T19:35:22.019Z,13.20
2018-09-15T19:40:25.716Z,13.10
2018-09-15T19:45:29.352Z,13.00
2018-09-15T19:50:33.304Z,12.90
2018-09-15T19:55:37.350Z,12.80
2018-09-15T20:00:41.354Z,12.70
2018-09-15T20:05:45.354Z,12.60
2018-09-15T20:10:49.226Z,12.40
2018-09-15T20:15:51.845Z,12.30
2018-09-15T20:20:54.415Z,12.20
2018-09-15T20:25:58.093Z,12.00
2018-09-15T20:31:02.907Z,11.90
2018-09-15T20:36:07.043Z,11.80
2018-09-15T20:41:11.063Z,11.70
2018-09-15T20:46:14.758Z,11.70
2018-09-15T20:51:18.413Z,11.80
2018-09-15T20:56:22.357Z,11.80
2018-09-15T21:01:26.364Z,11.80
2018-09-15T21:06:30.551Z,11.70
2018-09-15T21:11:34.552Z,11.60
2018-09-15T21:16:38.368Z,11.50
2018-09-15T21:21:42.248Z,11.30
2018-09-15T21:26:46.407Z,11.20
2018-09-15T21:31:50.560Z,11.10
2018-09-15T21:36:54.451Z,11.00
2018-09-15T21:41:58.215Z,10.90
2018-09-15T21:47:01.846Z,10.90
2018-09-15T21:52:05.593Z,10.80
2018-09-15T21:57:10.286Z,10.60
2018-09-15T22:02:14.199Z,10.50
2018-09-15T22:07:18.235Z,10.40
2018-09-15T22:12:22.056Z,10.30
2018-09-15T22:17:25.601Z,10.20
2018-09-15T22:22:29.217Z,10.10
2018-09-15T22:27:32.854Z,10.00
2018-09-15T22:32:36.952Z,10.00
2018-09-15T22:37:40.844Z,9.90
2018-09-15T22:42:44.711Z,9.90
2018-09-15T22:47:48.403Z,9.90
2018-09-15T22:52:51.943Z,9.80
2018-09-15T22:57:55.632Z,9.80
2018-09-15T23:02:59.205Z,9.70
2018-09-15T23:08:03.840Z,9.70
2018-09-15T23:13:07.671Z,9.60
2018-09-15T23:18:11.406Z,9.60
2018-09-15T23:23:15.707Z,9.50
2018-09-15T23:28:19.331Z,9.40
2018-09-15T23:33:22.949Z,9.30
2018-09-15T23:38:26.562Z,9.30
2018-09-15T23:43:30.321Z,9.20
2018-09-15T23:48:34.161Z,9.20
2018-09-15T23:53:37.883Z,9.20
2018-09-15T23:58:42.701Z,9.10
